Kezdőlap
METAR-TAF:

METAR-TAF

Repülőterek :

Fokváros, Dél-afrikai Köztársaság

földrajzi szélesség: 33-59S, földrajzi hosszúság: 018-36E, magasság: 42 m

Jelenlegi meteorológiai megfigyelések

A jelentés 12 perccel ezelõtt készült, 16:00 UTC
Különbözõ irányokból fújó szél 3 kt
Hőmérséklet 19°C
Páratartalom 60%
Légköri nyomás 1021 hPa
Látótávolság 10 km, vagy több
felhőtlen 1500 m magasságban, és nincs gomolyfelhõ

METAR: FACT 181600Z VRB03KT CAVOK 19/11 Q1021 NOSIG

Idő: 18:12 (16:12 UTC)

Előrejelzés

A jelentés 6 órával és 12 perccel ezelõtt készült, 10:00 UTC
Az előrejelzés 18-én 12 óra UTC és 19-én 18 óra UTC között érvényes
Észak-északkeleti szél 10 kt
Látótávolság 10 km, vagy több
felhőtlen 1500 m magasságban, és nincs gomolyfelhõ

TAF: FACT 181000Z 1812/1918 03010KT CAVOK TX26/1912Z TN14/1906Z

Meteorológiai megfigyelések és előrejelzések több, mint 4000 repülőtéren (METAR és TAF jelentéseket).

A térképen piros és sárga pontok jelzik az elérhető meteorológiai állomásokat.

Mozgassa az egeret a pont fölött, hogy megjelenjen az állomás neve.

Azután kattintson az időjárási megfigyelések és előrejelzések megtekintéséhez.

A térkép megváltoztatása: kattintson a fekete keresztel jelölt zöld gombra ráközelítéshez, a vonallal jelölt zöld gombra távolításhoz, vagy a zöld nyilakra a szomszédos térképek eléréséhez.


METAR-TAF: